^^
Station Historical Data
Daily Summary for September 11, 2021 Units:  English    Metric   Both
Daily Weekly Monthly Yearly
  High: Low: Average:
Temperature: 74.1 °F 64.1 °F 66.8 °F
Dew Point: 65.5 °F 57.6 °F 59.8 °F
Humidity: 82% 70% 78%
Wind Speed: 5mph 1mph 2.3mph
Wind Gust: 7mph - -
Wind- - East
Pressure: 29.97 in 29.83 in -
Precipitation: 0.00 in    
 
 
Tabular Data for September 11, 2021
Time Temperature Dew Point Pressure Wind Wind Speed Wind Gust Humidity Rainfall Rate (Hourly) solar
00:00 66.1 °F 59.4 °F 29.97 in NNE 2 mph 2 mph 79% 0.00 in 0 W/m2
00:05 66.2 °F 59.5 °F 29.97 in ENE 2 mph 3 mph 79% 0.00 in 0 W/m2
00:10 66.2 °F 59.1 °F 29.97 in NE 2 mph 2 mph 78% 0.00 in 0 W/m2
00:15 66.3 °F 59.2 °F 29.96 in NE 2 mph 2 mph 78% 0.00 in 0 W/m2
00:20 66.2 °F 59.5 °F 29.96 in NW 2 mph 2 mph 79% 0.00 in 0 W/m2
00:25 66.2 °F 59.1 °F 29.96 in NE 2 mph 3 mph 78% 0.00 in 0 W/m2
00:30 66.1 °F 59 °F 29.96 in NE 2 mph 2 mph 78% 0.00 in 0 W/m2
00:35 66.1 °F 59.7 °F 29.96 in NW 2 mph 2 mph 80% 0.00 in 0 W/m2
00:40 65.9 °F 59.9 °F 29.96 in NNW 2 mph 2 mph 81% 0.00 in 0 W/m2
00:45 65.6 °F 59.3 °F 29.96 in WNW 1 mph 2 mph 80% 0.00 in 0 W/m2
00:50 65.5 °F 59.5 °F 29.96 in NNW 1 mph 1 mph 81% 0.00 in 0 W/m2
00:55 65.4 °F 59.8 °F 29.96 in NW 1 mph 1 mph 82% 0.00 in 0 W/m2
01:00 65.4 °F 59.1 °F 29.96 in NNE 1 mph 3 mph 80% 0.00 in 0 W/m2
01:05 65.9 °F 59.6 °F 29.96 in NE 2 mph 3 mph 80% 0.00 in 0 W/m2
01:10 66 °F 58.9 °F 29.96 in NNE 2 mph 4 mph 78% 0.00 in 0 W/m2
01:15 66 °F 58.9 °F 29.96 in NNE 3 mph 4 mph 78% 0.00 in 0 W/m2
01:20 65.9 °F 58.8 °F 29.96 in NNE 3 mph 3 mph 78% 0.00 in 0 W/m2
01:25 65.9 °F 59.2 °F 29.96 in NNW 2 mph 3 mph 79% 0.00 in 0 W/m2
01:30 65.8 °F 58.7 °F 29.96 in NNE 2 mph 2 mph 78% 0.00 in 0 W/m2
01:35 65.7 °F 58.7 °F 29.96 in NNE 2 mph 2 mph 78% 0.00 in 0 W/m2
01:40 65.7 °F 59 °F 29.96 in NNE 2 mph 2 mph 79% 0.00 in 0 W/m2
01:45 65.6 °F 58.9 °F 29.96 in ENE 2 mph 3 mph 79% 0.00 in 0 W/m2
01:50 65.7 °F 59.4 °F 29.95 in NE 2 mph 3 mph 80% 0.00 in 0 W/m2
01:55 65.7 °F 59.4 °F 29.95 in North 2 mph 3 mph 80% 0.00 in 0 W/m2
02:00 65.6 °F 58.9 °F 29.95 in NNE 2 mph 2 mph 79% 0.00 in 0 W/m2
02:05 65.6 °F 58.9 °F 29.95 in NNE 2 mph 2 mph 79% 0.00 in 0 W/m2
02:10 65.5 °F 58.8 °F 29.95 in NNW 2 mph 2 mph 79% 0.00 in 0 W/m2
02:15 65.4 °F 58.4 °F 29.96 in NE 2 mph 3 mph 78% 0.00 in 0 W/m2
02:20 65.4 °F 58.7 °F 29.95 in NE 2 mph 2 mph 79% 0.00 in 0 W/m2
02:25 65.4 °F 58.7 °F 29.95 in NNE 2 mph 2 mph 79% 0.00 in 0 W/m2
02:30 65.3 °F 58.6 °F 29.95 in NNE 2 mph 2 mph 79% 0.00 in 0 W/m2
02:35 65.3 °F 58.3 °F 29.95 in NNE 2 mph 2 mph 78% 0.00 in 0 W/m2
02:40 65.3 °F 59 °F 29.95 in NNE 2 mph 2 mph 80% 0.00 in 0 W/m2
02:45 65.3 °F 58.6 °F 29.95 in NE 2 mph 3 mph 79% 0.00 in 0 W/m2
02:50 65.3 °F 58.6 °F 29.94 in NE 2 mph 2 mph 79% 0.00 in 0 W/m2
02:55 65.3 °F 58.6 °F 29.94 in NNE 2 mph 3 mph 79% 0.00 in 0 W/m2
03:00 65.4 °F 59.1 °F 29.94 in North 2 mph 2 mph 80% 0.00 in 0 W/m2
03:10 65.2 °F 58.9 °F 29.94 in North 2 mph 3 mph 80% 0.00 in 0 W/m2
03:15 65 °F 58.3 °F 29.94 in North 2 mph 3 mph 79% 0.00 in 0 W/m2
03:20 64.9 °F 58.2 °F 29.94 in NE 2 mph 2 mph 79% 0.00 in 0 W/m2
03:25 64.9 °F 58.6 °F 29.94 in NNE 2 mph 2 mph 80% 0.00 in 0 W/m2
03:30 64.9 °F 58.9 °F 29.94 in NNE 2 mph 2 mph 81% 0.00 in 0 W/m2
03:35 64.9 °F 58.2 °F 29.94 in NNE 2 mph 2 mph 79% 0.00 in 0 W/m2
03:40 65 °F 58.7 °F 29.94 in North 2 mph 2 mph 80% 0.00 in 0 W/m2
03:45 65 °F 58.7 °F 29.94 in NNE 2 mph 2 mph 80% 0.00 in 0 W/m2
03:50 65 °F 58.7 °F 29.94 in North 2 mph 2 mph 80% 0.00 in 0 W/m2
03:55 64.9 °F 58.6 °F 29.94 in NNE 2 mph 2 mph 80% 0.00 in 0 W/m2
04:00 64.9 °F 58.6 °F 29.94 in NNE 2 mph 2 mph 80% 0.00 in 0 W/m2
04:05 65 °F 58.7 °F 29.94 in NNE 2 mph 2 mph 80% 0.00 in 0 W/m2
04:10 64.9 °F 58.6 °F 29.94 in NNE 2 mph 2 mph 80% 0.00 in 0 W/m2
04:15 64.9 °F 58.6 °F 29.94 in NNE 2 mph 3 mph 80% 0.00 in 0 W/m2
04:20 64.9 °F 58.9 °F 29.94 in NNE 2 mph 2 mph 81% 0.00 in 0 W/m2
04:25 64.9 °F 58.6 °F 29.94 in NE 2 mph 2 mph 80% 0.00 in 0 W/m2
04:30 64.8 °F 58.8 °F 29.94 in North 2 mph 2 mph 81% 0.00 in 0 W/m2
04:35 65 °F 58.7 °F 29.94 in NNE 2 mph 2 mph 80% 0.00 in 0 W/m2
04:40 65.1 °F 58.4 °F 29.94 in North 2 mph 3 mph 79% 0.00 in 0 W/m2
04:45 65.1 °F 58.8 °F 29.94 in North 2 mph 3 mph 80% 0.00 in 0 W/m2
04:50 65.1 °F 58.8 °F 29.94 in NNE 2 mph 3 mph 80% 0.00 in 0 W/m2
04:55 65.1 °F 58.8 °F 29.94 in NNW 2 mph 3 mph 80% 0.00 in 0 W/m2
05:00 65.4 °F 59.1 °F 29.93 in NNE 2 mph 4 mph 80% 0.00 in 0 W/m2
05:05 65.3 °F 59.3 °F 29.93 in NNE 2 mph 4 mph 81% 0.00 in 0 W/m2
05:10 65.2 °F 59.2 °F 29.93 in NE 2 mph 2 mph 81% 0.00 in 0 W/m2
05:15 65.2 °F 58.9 °F 29.93 in NE 2 mph 3 mph 80% 0.00 in 0 W/m2
05:20 65.2 °F 58.9 °F 29.93 in NE 2 mph 2 mph 80% 0.00 in 0 W/m2
05:25 65.3 °F 59 °F 29.93 in NE 2 mph 3 mph 80% 0.00 in 0 W/m2
05:30 65.3 °F 59 °F 29.93 in ESE 2 mph 2 mph 80% 0.00 in 0 W/m2
05:35 65.2 °F 58.9 °F 29.93 in ESE 2 mph 3 mph 80% 0.00 in 0 W/m2
05:40 65.2 °F 58.9 °F 29.93 in NE 2 mph 2 mph 80% 0.00 in 0 W/m2
05:45 65.2 °F 58.9 °F 29.93 in NNE 2 mph 2 mph 80% 0.00 in 0 W/m2
05:50 65.2 °F 59.2 °F 29.93 in NNE 2 mph 2 mph 81% 0.00 in 0 W/m2
05:55 65.1 °F 59.1 °F 29.93 in NNE 2 mph 2 mph 81% 0.00 in 0 W/m2
06:00 65.1 °F 58.8 °F 29.93 in ENE 2 mph 3 mph 80% 0.00 in 0 W/m2
06:05 65.1 °F 58.8 °F 29.93 in NNE 2 mph 3 mph 80% 0.00 in 0 W/m2
06:10 65.1 °F 58.8 °F 29.93 in NE 2 mph 2 mph 80% 0.00 in 0 W/m2
06:15 65 °F 58.7 °F 29.93 in NE 2 mph 2 mph 80% 0.00 in 0 W/m2
06:20 65 °F 58.3 °F 29.93 in NE 2 mph 3 mph 79% 0.00 in 0 W/m2
06:25 65.1 °F 59.5 °F 29.93 in NE 2 mph 3 mph 82% 0.00 in 0 W/m2
06:30 65.1 °F 59.5 °F 29.93 in ENE 2 mph 2 mph 82% 0.00 in 0 W/m2
06:35 65 °F 58.7 °F 29.93 in East 2 mph 2 mph 80% 0.00 in 0 W/m2
06:40 65 °F 58.7 °F 29.93 in NE 2 mph 3 mph 80% 0.00 in 0 W/m2
06:45 65 °F 59 °F 29.93 in NNE 2 mph 3 mph 81% 0.00 in 0 W/m2
06:50 64.9 °F 58.9 °F 29.93 in NE 2 mph 3 mph 81% 0.00 in 0 W/m2
06:55 64.9 °F 58.9 °F 29.93 in NE 2 mph 3 mph 81% 0.00 in 0 W/m2
07:00 64.8 °F 58.8 °F 29.93 in NNE 2 mph 2 mph 81% 0.00 in 0 W/m2
07:05 64.9 °F 59.3 °F 29.93 in NNE 2 mph 2 mph 82% 0.00 in 0 W/m2
07:10 64.8 °F 59.2 °F 29.93 in ENE 2 mph 3 mph 82% 0.00 in 5 W/m2
07:15 64.7 °F 58.7 °F 29.93 in NNW 2 mph 3 mph 81% 0.00 in 7 W/m2
07:20 64.6 °F 58.6 °F 29.93 in West 2 mph 3 mph 81% 0.00 in 9 W/m2
07:25 64.5 °F 58.5 °F 29.93 in NE 2 mph 3 mph 81% 0.00 in 12 W/m2
07:30 64.4 °F 58.8 °F 29.93 in NE 2 mph 4 mph 82% 0.00 in 14 W/m2
07:35 64.2 °F 57.9 °F 29.93 in NE 3 mph 4 mph 80% 0.00 in 18 W/m2
07:40 64.1 °F 57.8 °F 29.93 in NNE 3 mph 3 mph 80% 0.00 in 19 W/m2
07:45 64.1 °F 57.8 °F 29.93 in NE 3 mph 4 mph 80% 0.00 in 23 W/m2
07:50 64.2 °F 58.2 °F 29.93 in NE 3 mph 3 mph 81% 0.00 in 25 W/m2
07:55 64.3 °F 58.3 °F 29.93 in SE 2 mph 3 mph 81% 0.00 in 26 W/m2
08:00 64.3 °F 58 °F 29.93 in ENE 2 mph 4 mph 80% 0.00 in 28 W/m2
08:05 64.3 °F 58 °F 29.93 in NE 2 mph 4 mph 80% 0.00 in 30 W/m2
08:10 64.4 °F 58.1 °F 29.94 in NE 2 mph 2 mph 80% 0.00 in 32 W/m2
08:15 64.3 °F 57.6 °F 29.93 in WNW 2 mph 2 mph 79% 0.00 in 33 W/m2
08:20 64.4 °F 58.1 °F 29.93 in NE 2 mph 3 mph 80% 0.00 in 51 W/m2
08:25 64.5 °F 58.2 °F 29.93 in North 2 mph 3 mph 80% 0.00 in 146 W/m2
08:30 64.6 °F 58.6 °F 29.93 in NNE 3 mph 3 mph 81% 0.00 in 160 W/m2
08:35 64.6 °F 58.6 °F 29.93 in NE 2 mph 3 mph 81% 0.00 in 174 W/m2
08:40 64.7 °F 58.4 °F 29.93 in NNE 2 mph 2 mph 80% 0.00 in 188 W/m2
08:45 64.7 °F 58 °F 29.92 in East 3 mph 3 mph 79% 0.00 in 204 W/m2
08:50 65 °F 58.7 °F 29.92 in North 3 mph 3 mph 80% 0.00 in 216 W/m2
08:55 65.1 °F 58.4 °F 29.92 in NNW 2 mph 3 mph 79% 0.00 in 227 W/m2
09:00 65.3 °F 59 °F 29.92 in NNE 3 mph 3 mph 80% 0.00 in 241 W/m2
09:05 65.4 °F 58.7 °F 29.92 in ENE 3 mph 3 mph 79% 0.00 in 255 W/m2
09:10 65.4 °F 58.4 °F 29.92 in WNW 2 mph 3 mph 78% 0.00 in 83 W/m2
09:15 65.6 °F 58.9 °F 29.92 in NNE 2 mph 3 mph 79% 0.00 in 60 W/m2
09:20 65.8 °F 58.7 °F 29.91 in NNE 2 mph 2 mph 78% 0.00 in 137 W/m2
09:25 65.9 °F 58.8 °F 29.91 in North 3 mph 3 mph 78% 0.00 in 49 W/m2
09:30 66.2 °F 59.5 °F 29.91 in North 3 mph 3 mph 79% 0.00 in 51 W/m2
09:35 66.5 °F 59.8 °F 29.91 in NNE 3 mph 3 mph 79% 0.00 in 104 W/m2
09:40 66.7 °F 59.6 °F 29.90 in ENE 3 mph 3 mph 78% 0.00 in 352 W/m2
09:45 66.9 °F 59.5 °F 29.90 in SE 3 mph 3 mph 77% 0.00 in 364 W/m2
09:50 67.1 °F 59.3 °F 29.90 in NNE 3 mph 3 mph 76% 0.00 in 311 W/m2
09:55 67.3 °F 59.5 °F 29.90 in NNE 3 mph 3 mph 76% 0.00 in 93 W/m2
10:00 67.5 °F 59.7 °F 29.90 in NE 3 mph 4 mph 76% 0.00 in 77 W/m2
10:05 67.7 °F 59.9 °F 29.90 in NE 3 mph 4 mph 76% 0.00 in 160 W/m2
10:10 67.9 °F 60.4 °F 29.90 in North 3 mph 3 mph 77% 0.00 in 429 W/m2
10:15 68.1 °F 60.6 °F 29.90 in NW 3 mph 3 mph 77% 0.00 in 510 W/m2
10:20 67.9 °F 60.4 °F 29.90 in ENE 3 mph 3 mph 77% 0.00 in 114 W/m2
10:25 68.2 °F 60.7 °F 29.90 in NW 2 mph 3 mph 77% 0.00 in 471 W/m2
10:30 68.4 °F 60.5 °F 29.90 in NNW 2 mph 2 mph 76% 0.00 in 520 W/m2
10:35 68.6 °F 61.1 °F 29.89 in SE 2 mph 3 mph 77% 0.00 in 216 W/m2
10:40 68.7 °F 60.5 °F 29.89 in NNW 3 mph 4 mph 75% 0.00 in 216 W/m2
10:45 68.9 °F 61.8 °F 29.89 in SSW 3 mph 4 mph 78% 0.00 in 503 W/m2
10:50 69 °F 61.5 °F 29.89 in ESE 2 mph 2 mph 77% 0.00 in 506 W/m2
10:55 69.2 °F 61.7 °F 29.89 in NNE 2 mph 2 mph 77% 0.00 in 520 W/m2
11:00 69.4 °F 61.5 °F 29.89 in WNW 2 mph 2 mph 76% 0.00 in 536 W/m2
11:05 69.6 °F 62.4 °F 29.89 in East 2 mph 2 mph 78% 0.00 in 550 W/m2
11:10 69.8 °F 62.3 °F 29.89 in East 2 mph 2 mph 77% 0.00 in 561 W/m2
11:15 70 °F 62.5 °F 29.89 in NE 2 mph 2 mph 77% 0.00 in 568 W/m2
11:20 70.1 °F 62.6 °F 29.89 in North 2 mph 3 mph 77% 0.00 in 575 W/m2
11:25 70.4 °F 62.8 °F 29.89 in WSW 2 mph 4 mph 77% 0.00 in 585 W/m2
11:30 70.6 °F 63 °F 29.88 in SE 2 mph 3 mph 77% 0.00 in 592 W/m2
11:35 70.8 °F 63.6 °F 29.88 in East 2 mph 3 mph 78% 0.00 in 601 W/m2
11:40 70.8 °F 63.2 °F 29.88 in ESE 2 mph 2 mph 77% 0.00 in 610 W/m2
11:45 71 °F 63.4 °F 29.88 in ESE 2 mph 2 mph 77% 0.00 in 617 W/m2
11:50 71.2 °F 62.9 °F 29.88 in North 2 mph 2 mph 75% 0.00 in 619 W/m2
11:55 71.5 °F 62 °F 29.88 in NNE 2 mph 2 mph 72% 0.00 in 621 W/m2
12:00 71.7 °F 62.6 °F 29.87 in SE 3 mph 3 mph 73% 0.00 in 626 W/m2
12:05 71.9 °F 62.4 °F 29.87 in ESE 3 mph 3 mph 72% 0.00 in 626 W/m2
12:10 72.1 °F 62.2 °F 29.87 in SE 3 mph 3 mph 71% 0.00 in 635 W/m2
12:15 72.2 °F 63.1 °F 29.87 in SW 3 mph 3 mph 73% 0.00 in 638 W/m2
12:20 72.3 °F 62.8 °F 29.87 in SSW 3 mph 3 mph 72% 0.00 in 645 W/m2
12:25 72.6 °F 63.1 °F 29.87 in SSW 5 mph 7 mph 72% 0.00 in 640 W/m2
12:30 72.8 °F 62.8 °F 29.87 in SSW 5 mph 6 mph 71% 0.00 in 622 W/m2
12:35 72.9 °F 62.5 °F 29.86 in SSW 5 mph 6 mph 70% 0.00 in 619 W/m2
12:40 73 °F 63 °F 29.86 in SW 5 mph 6 mph 71% 0.00 in 650 W/m2
12:45 73.1 °F 63.1 °F 29.86 in ESE 4 mph 6 mph 71% 0.00 in 656 W/m2
12:50 73.1 °F 63.1 °F 29.85 in ENE 3 mph 3 mph 71% 0.00 in 661 W/m2
12:55 73.3 °F 63.3 °F 29.85 in SW 2 mph 3 mph 71% 0.00 in 670 W/m2
13:00 73.3 °F 63.3 °F 29.85 in SSW 3 mph 3 mph 71% 0.00 in 675 W/m2
13:05 73.6 °F 63.2 °F 29.85 in East 3 mph 3 mph 70% 0.00 in 671 W/m2
13:10 73.7 °F 63.3 °F 29.85 in ESE 3 mph 3 mph 70% 0.00 in 684 W/m2
13:15 73.9 °F 64.3 °F 29.85 in NW 2 mph 3 mph 72% 0.00 in 684 W/m2
13:20 74 °F 63.6 °F 29.84 in SE 2 mph 2 mph 70% 0.00 in 680 W/m2
13:25 74.1 °F 64.1 °F 29.84 in East 2 mph 2 mph 71% 0.00 in 693 W/m2
13:30 74.1 °F 64.1 °F 29.83 in East 3 mph 3 mph 71% 0.00 in 680 W/m2
13:35 73.9 °F 65.5 °F 29.83 in ENE 2 mph 3 mph 75% 0.00 in 689 W/m2
Sand Point, Michigan, USA
Compliments of Weather Underground - 2 mb